Briefing drone pour Varennes-vauzelles

Rechercher une autre localisation

Conditions de vol :


Nous sommes le : Vendredi 26 février 2021
Il est 03:33 UTC (04:33 LT)

Lever de soleil : 06:05 UTC (07:05 LT)
Coucher de soleil : 17:54 UTC (18:54 LT)

Météo

L'essentiel des conditions de vol

VIGILANCE MÉTÉO FRANCE - Nièvre (58)
Pas de vigilances particulieres
CARTE TEMSI
CARTES DES FRONTS
METAR de LFQG
LFQG 251800Z AUTO 00000KT CAVOK 11/05 Q1029

Date d'émission: 25/02/2021
Heure d'émission: 18:00 UTC
Vent: Calme
Visibilité horizontale: > 10 km
Plafond : Plafond et visibilité OK (CAVOK)
Température: 11 °C
Point de rosée: 5 °C
Humidité: 67%
Pression (QNH): 1029 hPa
Prévision 24h pour Nevers (2 km)
Vent : 21° pour 4 KT (15 km/h)
Temperature Maxi: 7 °C
Temperature Min: 7 °C
Humidité : 92%
Condition : Couvert



Warning: count(): Parameter must be an array or an object that implements Countable in /homepages/6/d509196549/htdocs/droneoxygene/briefing.php on line 743
WEBCAM POUR VARENNES-VAUZELLES

Réglementation

Voler en sécurité

CARTES AERONAUTIQUE 1/500.000
CARTES VAC (LFQG)
SUP AIP




Chargement des AIP...
NOTAM (VARENNES-VAUZELLES + Terrain à proximité / FIR )




Chargement des NOTAMS...
CONTACT PREFECTURE 58


Avertissement : Les données mises à disposition sont indicatives. Oxygène Drone ne pourra être tenu responsable de dégâts causés aux biens et aux personnes.